Time;durP1;ratioP1;P1;durP2;ratioP2;P2;SDS_P1;SDS_P2;PMS_P1;PMS_P2;Temp;Humidity;BMP_temperature;BMP_pressure;BME280_temperature;BME280_humidity;BME280_pressure;Samples;Min_cycle;Max_cycle;Signal;HPM_P1;HPM_P2
2021/05/05 00:00:06;;;;;;;3.25;1.50;;;6.00;79.60;;;;;;5053468;28;20049;-87
2021/05/05 00:02:31;;;;;;;1.52;1.30;;;6.00;79.80;;;;;;5056832;28;20025;-82
2021/05/05 00:04:57;;;;;;;2.03;1.52;;;5.90;80.00;;;;;;5056141;28;20024;-86
2021/05/05 00:07:23;;;;;;;3.17;1.35;;;5.80;80.20;;;;;;5064144;28;20021;-84
2021/05/05 00:09:49;;;;;;;2.40;1.40;;;5.80;80.30;;;;;;5054672;28;20031;-86
2021/05/05 00:12:15;;;;;;;2.10;1.65;;;5.70;80.30;;;;;;5055502;28;20025;-83
2021/05/05 00:14:41;;;;;;;2.85;1.52;;;5.70;80.50;;;;;;5053397;28;20040;-84
2021/05/05 00:17:06;;;;;;;2.10;1.40;;;5.70;80.30;;;;;;5054410;28;20513;-83
2021/05/05 00:19:32;;;;;;;2.20;1.50;;;5.70;80.00;;;;;;5045134;28;20390;-85
2021/05/05 00:21:58;;;;;;;1.58;1.20;;;5.70;79.90;;;;;;5036516;28;20103;-87
2021/05/05 00:24:24;;;;;;;1.70;1.38;;;5.70;79.80;;;;;;5058086;28;20032;-84
2021/05/05 00:26:49;;;;;;;4.18;1.70;;;5.80;79.60;;;;;;5055227;28;20021;-85
2021/05/05 00:29:15;;;;;;;3.08;1.52;;;5.80;79.50;;;;;;5045843;28;20491;-85
2021/05/05 00:31:41;;;;;;;2.60;1.73;;;5.80;79.40;;;;;;5054052;28;20496;-85
2021/05/05 00:34:07;;;;;;;1.55;1.35;;;5.70;79.50;;;;;;5056040;28;20116;-85
2021/05/05 00:36:33;;;;;;;2.13;1.60;;;5.70;79.60;;;;;;5039261;28;20426;-86
2021/05/05 00:38:59;;;;;;;1.75;1.45;;;5.60;79.60;;;;;;5057033;28;20390;-86
2021/05/05 00:41:25;;;;;;;3.15;1.88;;;5.50;79.80;;;;;;5056714;28;20047;-85
2021/05/05 00:43:51;;;;;;;2.10;1.65;;;5.50;80.00;;;;;;5038805;28;20493;-84
2021/05/05 00:46:16;;;;;;;1.63;1.50;;;5.50;80.10;;;;;;5056247;28;20490;-86
2021/05/05 00:48:42;;;;;;;1.70;1.40;;;5.40;80.00;;;;;;5056428;28;20063;-85
2021/05/05 00:51:08;;;;;;;2.50;1.73;;;5.50;80.20;;;;;;5048465;28;20029;-86
2021/05/05 00:53:35;;;;;;;2.92;1.63;;;5.40;80.10;;;;;;5038111;28;20037;-87
2021/05/05 00:56:02;;;;;;;3.13;1.40;;;5.40;80.10;;;;;;5057473;28;20019;-86
2021/05/05 00:58:27;;;;;;;2.72;1.38;;;5.40;80.00;;;;;;5057082;28;20036;-87
2021/05/05 01:00:53;;;;;;;2.58;1.77;;;5.40;80.10;;;;;;5056544;28;20029;-86
2021/05/05 01:03:21;;;;;;;2.40;1.25;;;5.40;80.10;;;;;;5056835;28;20024;-88
2021/05/05 01:05:47;;;;;;;;;;;5.40;79.80;;;;;;5057602;28;20413;-88
2021/05/05 01:08:16;;;;;;;4.10;1.80;;;5.40;79.70;;;;;;5054763;28;19912;-88
2021/05/05 01:10:44;;;;;;;5.88;2.85;;;5.40;79.90;;;;;;5057163;28;20465;-88
2021/05/05 01:13:12;;;;;;;1.77;1.50;;;5.30;80.00;;;;;;5056203;28;20087;-87
2021/05/05 01:15:38;;;;;;;1.80;1.10;;;5.30;80.30;;;;;;5040542;28;20113;-89
2021/05/05 01:18:04;;;;;;;1.88;1.38;;;5.30;80.30;;;;;;5039674;28;20394;-87
2021/05/05 01:20:30;;;;;;;2.45;1.45;;;5.20;80.20;;;;;;5059132;28;20029;-86
2021/05/05 01:22:57;;;;;;;2.90;1.40;;;5.20;80.20;;;;;;5059465;28;20079;-84
2021/05/05 01:25:23;;;;;;;2.53;1.67;;;5.20;80.30;;;;;;5040072;28;20040;-85
2021/05/05 01:27:48;;;;;;;5.65;2.58;;;5.10;80.40;;;;;;5067740;28;20107;-85
2021/05/05 01:30:17;;;;;;;1.85;1.67;;;5.20;80.50;;;;;;5048344;28;20041;-86
2021/05/05 01:32:44;;;;;;;2.35;1.85;;;5.20;80.40;;;;;;5000717;28;20506;-86
2021/05/05 01:35:11;;;;;;;2.42;1.70;;;5.20;80.30;;;;;;5032478;28;20075;-85
2021/05/05 01:37:40;;;;;;;3.10;2.00;;;5.10;80.30;;;;;;5036149;28;20057;-87
2021/05/05 01:40:08;;;;;;;1.85;1.50;;;5.10;80.40;;;;;;5037318;28;20099;-85
2021/05/05 01:42:34;;;;;;;1.92;1.52;;;5.20;80.60;;;;;;5038411;28;20097;-85
2021/05/05 01:45:00;;;;;;;1.85;1.67;;;5.10;80.60;;;;;;5037411;28;20057;-87
2021/05/05 01:47:26;;;;;;;2.22;1.58;;;5.10;80.50;;;;;;5039945;28;20100;-85
2021/05/05 01:49:52;;;;;;;2.22;1.70;;;5.10;80.90;;;;;;5017132;28;20493;-85
2021/05/05 01:52:20;;;;;;;1.58;1.30;;;5.20;80.20;;;;;;5037403;28;20032;-85
2021/05/05 01:54:46;;;;;;;2.85;1.38;;;5.10;80.10;;;;;;5027644;28;20496;-86
2021/05/05 01:57:22;;;;;;;3.30;1.73;;;5.20;80.10;;;;;;5025293;28;20025;-85
2021/05/05 01:59:49;;;;;;;2.88;1.50;;;5.20;80.10;;;;;;5017279;28;20043;-86
2021/05/05 02:02:15;;;;;;;5.75;1.67;;;5.20;79.90;;;;;;5037036;28;20108;-86
2021/05/05 02:04:41;;;;;;;3.75;1.75;;;5.20;80.50;;;;;;5035929;28;20543;-86
2021/05/05 02:07:07;;;;;;;1.85;1.65;;;5.20;79.70;;;;;;5022560;28;20025;-85
2021/05/05 02:09:33;;;;;;;2.33;1.48;;;5.20;79.60;;;;;;5048027;28;20044;-85
2021/05/05 02:11:59;;;;;;;4.40;1.83;;;5.20;79.40;;;;;;5037201;28;20041;-84
2021/05/05 02:14:24;;;;;;;2.17;1.65;;;5.20;79.30;;;;;;5036007;28;20033;-86
2021/05/05 02:16:55;;;;;;;2.22;1.67;;;5.30;79.10;;;;;;5035979;28;20032;-85
2021/05/05 02:19:21;;;;;;;4.53;1.73;;;5.20;79.00;;;;;;5035741;28;20053;-84
2021/05/05 02:21:46;;;;;;;1.90;1.50;;;5.30;79.10;;;;;;5035610;28;20030;-85
2021/05/05 02:24:12;;;;;;;2.03;1.42;;;5.30;79.00;;;;;;5036469;28;20021;-85
2021/05/05 02:26:38;;;;;;;3.15;1.60;;;5.30;79.00;;;;;;5034075;28;20021;-83
2021/05/05 02:29:04;;;;;;;3.35;1.92;;;5.30;78.90;;;;;;5042560;28;20056;-84
2021/05/05 02:31:30;;;;;;;2.65;1.40;;;5.30;78.70;;;;;;5056884;28;20021;-86
2021/05/05 02:33:55;;;;;;;2.38;1.77;;;5.40;78.60;;;;;;5054070;28;20090;-85
2021/05/05 02:36:21;;;;;;;3.75;1.60;;;5.50;78.50;;;;;;5054146;28;20028;-85
2021/05/05 02:38:47;;;;;;;1.63;1.52;;;5.60;78.40;;;;;;5054985;28;20021;-84
2021/05/05 02:41:13;;;;;;;3.50;1.83;;;5.70;77.70;;;;;;5036992;28;20505;-85
2021/05/05 02:43:39;;;;;;;2.13;1.40;;;5.80;77.60;;;;;;5054766;28;20021;-85
2021/05/05 02:46:05;;;;;;;2.90;1.50;;;5.90;77.50;;;;;;5055453;28;20017;-85
2021/05/05 02:48:30;;;;;;;2.13;1.48;;;6.00;77.00;;;;;;5036575;28;20105;-85
2021/05/05 02:50:56;;;;;;;2.40;1.50;;;6.10;76.40;;;;;;5055115;28;20021;-86
2021/05/05 02:53:22;;;;;;;2.38;1.45;;;6.10;76.00;;;;;;5058369;28;20087;-84
2021/05/05 02:55:48;;;;;;;3.47;2.00;;;6.10;76.00;;;;;;5055525;28;20062;-86
2021/05/05 02:58:15;;;;;;;4.07;1.75;;;6.10;76.20;;;;;;5045326;28;20113;-86
2021/05/05 03:00:41;;;;;;;5.07;2.35;;;6.20;76.10;;;;;;5052031;28;20028;-88
2021/05/05 03:03:06;;;;;;;4.47;2.60;;;6.30;76.00;;;;;;5054878;28;20481;-86
2021/05/05 03:05:32;;;;;;;3.10;1.77;;;6.30;75.50;;;;;;5045493;28;20047;-87
2021/05/05 03:07:58;;;;;;;2.97;1.70;;;6.40;75.30;;;;;;5055154;28;20036;-88
2021/05/05 03:10:24;;;;;;;1.98;1.60;;;6.40;75.10;;;;;;5036981;28;20029;-87
2021/05/05 03:12:50;;;;;;;2.42;1.50;;;6.40;75.00;;;;;;5037062;28;20025;-86
2021/05/05 03:15:16;;;;;;;3.47;2.08;;;6.40;74.80;;;;;;5045523;28;20474;-88
2021/05/05 03:17:41;;;;;;;1.95;1.73;;;6.40;74.60;;;;;;5050893;28;20394;-85
2021/05/05 03:20:09;;;;;;;3.60;1.80;;;6.50;74.10;;;;;;5053119;28;20033;-86
2021/05/05 03:22:35;;;;;;;;;;;6.50;74.20;;;;;;5053545;28;20028;-85
2021/05/05 03:25:01;;;;;;;3.40;1.60;;;6.40;74.20;;;;;;5054200;28;19904;-86
2021/05/05 03:27:27;;;;;;;3.42;2.03;;;6.40;74.30;;;;;;5053823;28;20096;-85
2021/05/05 03:29:52;;;;;;;2.25;1.55;;;6.50;74.30;;;;;;5048473;28;20104;-85
2021/05/05 03:32:18;;;;;;;2.90;1.45;;;6.40;73.90;;;;;;5039616;28;20051;-85
2021/05/05 03:34:44;;;;;;;2.42;1.35;;;6.40;73.60;;;;;;5056397;28;20025;-84
2021/05/05 03:37:10;;;;;;;2.92;1.88;;;6.40;74.00;;;;;;5053528;28;20036;-84
2021/05/05 03:39:36;;;;;;;2.30;1.10;;;6.40;73.60;;;;;;5057323;28;20057;-87
2021/05/05 03:42:02;;;;;;;1.73;1.52;;;6.30;72.80;;;;;;5041561;28;20070;-84
2021/05/05 03:44:28;;;;;;;3.40;1.58;;;6.30;73.00;;;;;;5052065;28;20433;-85
2021/05/05 03:46:54;;;;;;;1.67;1.58;;;6.30;73.20;;;;;;5063805;28;20100;-84
2021/05/05 03:49:20;;;;;;;2.60;1.55;;;6.40;72.80;;;;;;5039545;28;20040;-85
2021/05/05 03:51:47;;;;;;;2.25;1.58;;;6.40;72.30;;;;;;5055831;28;20036;-86
2021/05/05 03:54:13;;;;;;;2.67;1.20;;;6.50;71.70;;;;;;5053619;28;20033;-87
2021/05/05 03:56:38;;;;;;;2.13;1.45;;;6.50;71.70;;;;;;5053261;28;20075;-85
2021/05/05 03:59:04;;;;;;;2.13;1.80;;;6.60;71.70;;;;;;5035466;28;20021;-85
2021/05/05 04:01:30;;;;;;;2.47;1.50;;;6.60;71.70;;;;;;5053328;28;20027;-84
2021/05/05 04:03:56;;;;;;;5.80;1.58;;;6.70;71.30;;;;;;5055458;28;20121;-84
2021/05/05 04:06:22;;;;;;;1.92;1.13;;;6.80;71.40;;;;;;5054118;28;20088;-84
2021/05/05 04:08:48;;;;;;;2.97;1.60;;;6.90;70.60;;;;;;5057236;28;20039;-84
2021/05/05 04:11:14;;;;;;;2.05;1.23;;;7.00;70.40;;;;;;5058628;28;20073;-85
2021/05/05 04:13:39;;;;;;;1.98;1.30;;;7.20;69.70;;;;;;5060089;28;20041;-86
2021/05/05 04:16:05;;;;;;;3.83;1.50;;;7.20;69.40;;;;;;5065051;28;20029;-86
2021/05/05 04:18:31;;;;;;;1.88;1.30;;;7.30;68.90;;;;;;5067141;28;20375;-85
2021/05/05 04:21:00;;;;;;;1.95;1.40;;;7.40;68.70;;;;;;5065521;28;20070;-88
2021/05/05 04:23:27;;;;;;;3.85;1.40;;;7.50;68.50;;;;;;5059710;28;20437;-86
2021/05/05 04:25:52;;;;;;;3.05;1.38;;;7.40;68.00;;;;;;5043346;28;20021;-86
2021/05/05 04:28:18;;;;;;;2.20;1.58;;;7.30;67.90;;;;;;5042306;28;20482;-86
2021/05/05 04:30:44;;;;;;;2.67;1.38;;;7.30;68.40;;;;;;5056867;28;20045;-86
2021/05/05 04:33:10;;;;;;;3.35;1.42;;;7.30;68.50;;;;;;5052667;28;20036;-86
2021/05/05 04:35:36;;;;;;;4.07;1.63;;;7.40;68.20;;;;;;5039771;28;20053;-85
2021/05/05 04:38:02;;;;;;;3.28;1.48;;;7.40;67.80;;;;;;5057568;28;20060;-87
2021/05/05 04:40:27;;;;;;;3.03;2.33;;;7.30;68.00;;;;;;5057543;28;20025;-89
2021/05/05 04:42:54;;;;;;;1.70;1.60;;;7.30;67.90;;;;;;5058130;28;20013;-92
2021/05/05 04:45:19;;;;;;;3.80;1.60;;;7.40;68.60;;;;;;5053117;28;20013;-90
2021/05/05 04:47:45;;;;;;;1.80;1.70;;;7.80;69.40;;;;;;5048960;28;20033;-89
2021/05/05 04:50:12;;;;;;;3.85;1.60;;;8.60;67.80;;;;;;5045636;28;20017;-88
2021/05/05 04:52:38;;;;;;;2.33;1.50;;;9.60;65.00;;;;;;5066268;28;20112;-90
2021/05/05 04:55:06;;;;;;;2.20;1.60;;;10.60;61.60;;;;;;5063302;28;20032;-91
2021/05/05 04:57:32;;;;;;;1.25;1.15;;;11.40;57.10;;;;;;5053225;28;20362;-90
2021/05/05 04:59:58;;;;;;;4.32;1.50;;;11.80;55.90;;;;;;5060205;28;20031;-89
2021/05/05 05:02:24;;;;;;;2.47;1.60;;;12.30;54.10;;;;;;5061825;28;20037;-89
2021/05/05 05:04:50;;;;;;;5.07;1.48;;;12.70;52.40;;;;;;5062771;28;20021;-86
2021/05/05 05:07:16;;;;;;;3.30;1.60;;;13.10;50.90;;;;;;5057379;28;20120;-86
2021/05/05 05:09:41;;;;;;;3.20;1.83;;;13.60;50.10;;;;;;5057044;28;20025;-87
2021/05/05 05:12:07;;;;;;;3.70;1.30;;;14.00;47.80;;;;;;5058560;28;20469;-89
2021/05/05 05:14:36;;;;;;;2.20;1.52;;;14.20;47.80;;;;;;5058158;28;20064;-87
2021/05/05 05:17:02;;;;;;;3.63;1.73;;;14.60;46.20;;;;;;5047685;28;20028;-88
2021/05/05 05:19:28;;;;;;;2.08;1.50;;;14.90;45.80;;;;;;5041019;28;20028;-88
2021/05/05 05:21:54;;;;;;;3.63;1.38;;;15.30;44.80;;;;;;5058126;28;20029;-88
2021/05/05 05:24:20;;;;;;;8.35;1.73;;;15.70;43.70;;;;;;5056650;28;20116;-89
2021/05/05 05:26:46;;;;;;;3.70;1.50;;;16.00;43.60;;;;;;5057269;28;20021;-87
2021/05/05 05:29:38;;;;;;;2.53;1.40;;;16.70;42.30;;;;;;5063641;28;20067;-88
2021/05/05 05:32:04;;;;;;;2.55;1.20;;;17.40;41.40;;;;;;5044691;28;20428;-87
2021/05/05 05:34:30;;;;;;;2.05;1.40;;;17.70;39.30;;;;;;5055370;28;20084;-86
2021/05/05 05:36:55;;;;;;;3.13;1.95;;;17.90;38.90;;;;;;5064704;28;20021;-87
2021/05/05 05:39:21;;;;;;;7.68;1.67;;;18.30;38.60;;;;;;5042611;28;20029;-86
2021/05/05 05:41:47;;;;;;;1.92;1.70;;;18.40;37.90;;;;;;5051941;28;20020;-86
2021/05/05 05:44:13;;;;;;;4.80;1.67;;;18.70;37.00;;;;;;5056841;28;20120;-84
2021/05/05 05:46:38;;;;;;;2.97;1.85;;;18.70;36.90;;;;;;5055860;28;20029;-86
2021/05/05 05:49:08;;;;;;;4.30;1.58;;;19.10;36.50;;;;;;5059295;28;20036;-85
2021/05/05 05:51:36;;;;;;;3.40;1.42;;;20.10;36.10;;;;;;5055589;28;20052;-86
2021/05/05 05:54:03;;;;;;;4.57;1.73;;;20.40;34.40;;;;;;5056043;28;20052;-86
2021/05/05 05:56:29;;;;;;;3.50;1.20;;;21.00;33.70;;;;;;5054984;28;20080;-87
2021/05/05 05:58:56;;;;;;;1.80;1.30;;;21.80;32.60;;;;;;5037476;28;20024;-87
2021/05/05 06:01:22;;;;;;;2.60;1.58;;;22.50;31.30;;;;;;5056301;28;20096;-88
2021/05/05 06:03:48;;;;;;;3.10;1.52;;;23.30;30.70;;;;;;5044943;28;20131;-88
2021/05/05 06:06:14;;;;;;;3.13;1.40;;;22.40;29.90;;;;;;5057222;28;20021;-84
2021/05/05 06:08:43;;;;;;;2.25;1.58;;;21.20;31.10;;;;;;5064576;28;20036;-88
2021/05/05 06:11:09;;;;;;;2.58;1.08;;;21.10;31.70;;;;;;5059614;28;20025;-87
2021/05/05 06:13:35;;;;;;;4.68;1.50;;;21.80;31.10;;;;;;5057204;28;20375;-88
2021/05/05 06:16:04;;;;;;;2.40;1.48;;;22.30;30.50;;;;;;5060086;28;20406;-89
2021/05/05 06:18:30;;;;;;;3.00;1.23;;;22.80;30.10;;;;;;5056231;28;20485;-88
2021/05/05 06:20:56;;;;;;;2.78;1.23;;;23.70;28.90;;;;;;5056072;28;20032;-87
2021/05/05 06:23:27;;;;;;;2.63;1.10;;;24.20;28.40;;;;;;5055719;28;20044;-86
2021/05/05 06:25:59;;;;;;;1.85;1.45;;;24.80;28.00;;;;;;5057090;28;20120;-86
2021/05/05 06:28:25;;;;;;;4.20;1.38;;;25.00;27.90;;;;;;5063230;28;20025;-87
2021/05/05 06:30:54;;;;;;;1.88;1.38;;;25.40;27.60;;;;;;5057676;28;20045;-87
2021/05/05 06:33:20;;;;;;;3.78;1.30;;;26.20;26.90;;;;;;5055520;28;20056;-86
2021/05/05 06:35:46;;;;;;;3.72;2.33;;;26.00;27.10;;;;;;5054513;28;20036;-89
2021/05/05 06:38:13;;;;;;;5.10;1.80;;;25.90;27.00;;;;;;5055735;28;20518;-89
2021/05/05 06:40:39;;;;;;;3.30;1.83;;;26.80;26.80;;;;;;5056752;28;20020;-89
2021/05/05 06:43:04;;;;;;;4.07;1.77;;;27.60;26.50;;;;;;5058500;28;20013;-89
2021/05/05 06:45:30;;;;;;;2.10;1.60;;;27.60;25.60;;;;;;5039340;28;20040;-86
2021/05/05 06:47:56;;;;;;;1.60;1.08;;;27.30;25.50;;;;;;5055776;28;20031;-87
2021/05/05 06:50:23;;;;;;;1.50;1.00;;;26.40;25.30;;;;;;5056818;28;20025;-87
2021/05/05 06:52:49;;;;;;;2.95;1.83;;;24.70;26.20;;;;;;5055131;28;20017;-87
2021/05/05 06:55:15;;;;;;;4.28;1.52;;;23.30;27.50;;;;;;5055720;28;20029;-87
2021/05/05 06:57:41;;;;;;;2.13;1.60;;;22.60;27.90;;;;;;5051487;28;20075;-87
2021/05/05 07:00:08;;;;;;;4.27;1.57;;;23.00;28.20;;;;;;5055292;28;20028;-87
2021/05/05 07:02:34;;;;;;;4.43;1.67;;;23.90;28.10;;;;;;5055810;28;20037;-88
2021/05/05 07:05:00;;;;;;;3.83;2.30;;;25.00;26.90;;;;;;5055007;28;20044;-89
2021/05/05 07:07:29;;;;;;;4.25;1.67;;;25.50;26.10;;;;;;5051438;28;20017;-89
2021/05/05 07:09:56;;;;;;;1.80;1.50;;;25.60;25.20;;;;;;5055160;28;20021;-87
2021/05/05 07:12:22;;;;;;;2.80;1.35;;;24.70;25.50;;;;;;5058398;28;20108;-86
2021/05/05 07:14:48;;;;;;;11.75;2.17;;;23.80;26.30;;;;;;5058908;28;20033;-86
2021/05/05 07:17:14;;;;;;;6.82;1.55;;;24.30;26.10;;;;;;5039303;28;20044;-87
2021/05/05 07:19:40;;;;;;;3.17;1.70;;;24.30;26.50;;;;;;5055912;28;20021;-86
2021/05/05 07:22:06;;;;;;;4.95;1.40;;;24.50;26.20;;;;;;5053868;28;20036;-86
2021/05/05 07:24:32;;;;;;;3.05;1.83;;;22.90;26.70;;;;;;5053590;28;20032;-86
2021/05/05 07:26:58;;;;;;;3.95;1.90;;;21.90;28.50;;;;;;5053897;28;20535;-86
2021/05/05 07:29:24;;;;;;;6.40;2.10;;;22.40;28.90;;;;;;5054189;28;20057;-85
2021/05/05 07:31:50;;;;;;;3.60;1.90;;;22.70;28.30;;;;;;5054055;28;20020;-85
2021/05/05 07:34:17;;;;;;;4.03;1.85;;;21.40;28.30;;;;;;5053841;28;20033;-85
2021/05/05 07:36:46;;;;;;;3.97;2.10;;;20.50;29.80;;;;;;5055222;28;20025;-85
2021/05/05 07:39:34;;;;;;;3.22;1.63;;;21.00;29.90;;;;;;5053747;28;20060;-87
2021/05/05 07:47:26;;;;;;;14.57;2.80;;;24.50;26.80;;;;;;5053346;28;20459;-84
2021/05/05 07:49:55;;;;;;;8.48;2.75;;;24.00;27.10;;;;;;5053224;28;20027;-88
2021/05/05 07:52:21;;;;;;;7.80;2.38;;;24.10;27.30;;;;;;5042724;28;20501;-88
2021/05/05 07:54:48;;;;;;;9.33;2.00;;;25.00;26.30;;;;;;5055642;28;20507;-90
2021/05/05 07:57:15;;;;;;;2.20;1.92;;;24.20;26.10;;;;;;5039157;28;20262;-87
2021/05/05 07:59:41;;;;;;;2.67;1.65;;;22.90;27.30;;;;;;5055103;28;20073;-87
2021/05/05 08:02:07;;;;;;;3.90;1.85;;;22.30;27.80;;;;;;5057507;28;20043;-86
2021/05/05 08:04:34;;;;;;;3.93;2.17;;;21.20;28.60;;;;;;5054930;28;20437;-85
2021/05/05 08:07:00;;;;;;;5.37;2.00;;;20.50;29.70;;;;;;5051032;28;20249;-86
2021/05/05 08:09:27;;;;;;;7.00;2.22;;;19.70;30.50;;;;;;5056713;28;20028;-85
2021/05/05 08:11:53;;;;;;;6.80;1.95;;;20.90;30.70;;;;;;5054157;28;20035;-86
2021/05/05 08:14:20;;;;;;;4.30;1.90;;;21.20;29.90;;;;;;5052040;28;20032;-84
2021/05/05 08:16:47;;;;;;;4.15;2.25;;;22.00;29.70;;;;;;5046324;28;20510;-88
2021/05/05 08:19:13;;;;;;;4.63;2.20;;;23.00;28.50;;;;;;5053010;28;20108;-86
2021/05/05 08:21:41;;;;;;;3.67;2.13;;;22.50;28.30;;;;;;5052669;28;20498;-85
2021/05/05 08:24:08;;;;;;;7.93;2.30;;;23.10;28.30;;;;;;5034684;28;20090;-85
2021/05/05 08:26:34;;;;;;;3.55;1.83;;;23.40;28.30;;;;;;5052752;28;20025;-80
2021/05/05 08:29:00;;;;;;;3.33;2.15;;;24.60;27.50;;;;;;5055334;28;20037;-80
2021/05/05 08:31:26;;;;;;;2.63;1.77;;;24.40;26.70;;;;;;5034850;28;20478;-85
2021/05/05 08:33:52;;;;;;;4.20;2.13;;;23.20;27.50;;;;;;5052601;28;20031;-86
2021/05/05 08:36:18;;;;;;;5.10;2.75;;;21.80;28.20;;;;;;5052171;28;20096;-81
2021/05/05 08:38:44;;;;;;;3.15;2.08;;;20.20;30.00;;;;;;5052935;28;20413;-88
2021/05/05 08:41:11;;;;;;;3.58;2.28;;;19.60;31.30;;;;;;5036394;28;20504;-87
2021/05/05 08:43:37;;;;;;;2.45;1.95;;;19.10;31.90;;;;;;5035518;28;20059;-84
2021/05/05 08:46:05;;;;;;;3.88;2.42;;;18.90;32.10;;;;;;5046655;28;20025;-84
2021/05/05 08:48:32;;;;;;;6.28;2.03;;;19.90;31.70;;;;;;5047173;28;20017;-86
2021/05/05 08:50:58;;;;;;;3.47;2.33;;;20.80;30.60;;;;;;5051864;28;20135;-84
2021/05/05 08:53:24;;;;;;;4.45;2.08;;;21.40;30.50;;;;;;5052273;28;20032;-84
2021/05/05 08:55:50;;;;;;;4.53;2.05;;;22.90;29.70;;;;;;5054642;28;20021;-83
2021/05/05 08:58:16;;;;;;;6.57;2.20;;;25.00;27.70;;;;;;5055633;28;20059;-85
2021/05/05 09:00:42;;;;;;;3.85;2.13;;;26.40;26.80;;;;;;5038078;28;20022;-87
2021/05/05 09:03:08;;;;;;;6.05;2.95;;;25.80;25.70;;;;;;5055386;28;20021;-83
2021/05/05 09:05:58;;;;;;;2.78;2.00;;;24.10;26.90;;;;;;5055656;28;20032;-82
2021/05/05 09:08:25;;;;;;;4.13;1.70;;;23.10;27.90;;;;;;5048793;28;20056;-83
2021/05/05 09:11:04;;;;;;;8.50;2.60;;;22.50;27.80;;;;;;5057686;28;20428;-87
2021/05/05 09:13:55;;;;;;;5.93;2.05;;;23.10;28.20;;;;;;5027080;28;20047;-88
2021/05/05 09:16:30;;;;;;;4.63;2.05;;;22.90;28.50;;;;;;5033299;28;20036;-87
2021/05/05 09:18:59;;;;;;;2.03;1.65;;;23.60;28.20;;;;;;5055562;28;20036;-84
2021/05/05 09:21:26;;;;;;;4.78;1.88;;;24.60;27.40;;;;;;5055432;28;20036;-84
2021/05/05 09:23:52;;;;;;;4.70;1.90;;;25.90;26.50;;;;;;5055360;28;20037;-86
2021/05/05 09:26:35;;;;;;;4.15;1.65;;;27.40;25.70;;;;;;5054361;28;20025;-83
2021/05/05 09:29:01;;;;;;;6.78;2.03;;;27.60;25.00;;;;;;5044183;28;20433;-84
2021/05/05 09:31:36;;;;;;;5.78;2.13;;;26.30;25.50;;;;;;5044363;28;20021;-84
2021/05/05 09:34:03;;;;;;;3.05;1.83;;;26.10;25.60;;;;;;5054830;28;20021;-84
2021/05/05 09:36:29;;;;;;;5.47;2.20;;;25.70;25.50;;;;;;5056316;28;20021;-85
2021/05/05 09:38:56;;;;;;;9.88;2.00;;;25.20;26.30;;;;;;5055155;28;20074;-84
2021/05/05 09:41:27;;;;;;;5.63;2.13;;;25.10;25.80;;;;;;5057804;28;20363;-83
2021/05/05 09:44:19;;;;;;;4.78;1.90;;;24.00;26.90;;;;;;5063279;28;20039;-85
2021/05/05 09:46:47;;;;;;;3.75;1.88;;;23.80;27.60;;;;;;5039174;28;20035;-88
2021/05/05 09:49:25;;;;;;;4.05;1.70;;;25.10;27.20;;;;;;5060325;28;20032;-88
2021/05/05 09:52:15;;;;;;;2.67;1.73;;;26.20;26.20;;;;;;5057987;28;20078;-91
2021/05/05 09:54:59;;;;;;;2.83;1.88;;;26.80;25.80;;;;;;5057724;28;20078;-87
2021/05/05 09:57:30;;;;;;;2.28;1.70;;;26.90;25.60;;;;;;5050862;28;20017;-87
2021/05/05 09:59:59;;;;;;;3.75;2.10;;;26.90;25.20;;;;;;5039011;28;20029;-87
2021/05/05 10:02:26;;;;;;;3.38;1.67;;;26.30;25.30;;;;;;5039453;28;20096;-88
2021/05/05 10:05:05;;;;;;;2.03;1.70;;;25.10;26.20;;;;;;5058498;28;20063;-87
2021/05/05 10:07:55;;;;;;;4.85;1.90;;;24.60;27.00;;;;;;5060324;28;20035;-89
2021/05/05 10:10:24;;;;;;;4.70;1.88;;;24.40;27.00;;;;;;5050200;28;20032;-87
2021/05/05 10:12:51;;;;;;;3.25;1.73;;;24.60;27.10;;;;;;5055843;28;20029;-88
2021/05/05 10:15:18;;;;;;;2.70;1.57;;;25.00;27.00;;;;;;5063372;28;20029;-93
2021/05/05 10:17:48;;;;;;;4.90;1.98;;;25.90;26.30;;;;;;5072186;28;20047;-95
2021/05/05 10:20:17;;;;;;;4.55;2.10;;;26.30;26.10;;;;;;5069127;28;20017;-92
2021/05/05 10:22:46;;;;;;;4.13;2.17;;;26.70;26.30;;;;;;5054181;28;20025;-89
2021/05/05 10:25:20;;;;;;;2.65;1.88;;;26.30;26.50;;;;;;5050742;28;20024;-92
2021/05/05 10:27:47;;;;;;;4.00;2.65;;;26.00;26.60;;;;;;5074632;28;20025;-92
2021/05/05 10:30:23;;;;;;;5.25;2.13;;;25.20;26.60;;;;;;5057807;28;20061;-94
2021/05/05 10:32:52;;;;;;;3.80;1.90;;;24.00;27.30;;;;;;5075311;28;20051;-92
2021/05/05 10:35:22;;;;;;;4.90;2.33;;;22.40;28.20;;;;;;5044342;28;20029;-92
2021/05/05 10:37:57;;;;;;;4.28;2.40;;;21.30;29.70;;;;;;5050435;28;20074;-93
2021/05/05 10:40:28;;;;;;;4.53;2.30;;;20.50;30.70;;;;;;5072281;28;20028;-83
2021/05/05 10:43:04;;;;;;;4.07;2.30;;;19.80;31.70;;;;;;5072577;28;20021;-90
2021/05/05 10:45:35;;;;;;;5.25;2.90;;;19.10;32.70;;;;;;5046598;28;20037;-94
2021/05/05 10:48:09;;;;;;;4.88;3.15;;;18.60;33.90;;;;;;5040265;28;20065;-90
2021/05/05 10:50:50;;;;;;;4.85;2.20;;;18.20;34.40;;;;;;5037429;28;20022;-90
2021/05/05 10:53:43;;;;;;;2.85;2.35;;;17.60;35.50;;;;;;5051625;28;20029;-90
2021/05/05 10:56:32;;;;;;;3.65;2.53;;;17.50;36.20;;;;;;5019782;28;20068;-91
2021/05/05 10:59:06;;;;;;;2.75;2.50;;;17.30;37.00;;;;;;5040747;28;20030;-91
2021/05/05 11:01:40;;;;;;;7.95;2.60;;;17.50;36.80;;;;;;5018311;28;20044;-94
2021/05/05 11:04:14;;;;;;;5.38;2.55;;;17.40;36.90;;;;;;5043876;28;20060;-92
2021/05/05 11:06:44;;;;;;;4.18;1.67;;;17.70;37.00;;;;;;5008137;28;20541;-93
2021/05/05 11:09:54;;;;;;;3.40;2.08;;;18.00;35.90;;;;;;5020175;28;20498;-93
2021/05/05 11:12:39;;;;;;;6.00;2.35;;;17.40;36.30;;;;;;4966062;29;20122;-91
2021/05/05 11:15:09;;;;;;;3.97;1.92;;;17.10;37.30;;;;;;4960141;29;20543;-88
2021/05/05 11:17:35;;;;;;;3.78;2.10;;;17.30;37.40;;;;;;4976405;28;20030;-89
2021/05/05 11:20:01;;;;;;;3.63;2.03;;;17.30;37.30;;;;;;4981968;28;20392;-88
2021/05/05 11:22:32;;;;;;;6.43;2.85;;;17.20;37.90;;;;;;4963332;28;20043;-89
2021/05/05 11:25:17;;;;;;;4.03;1.92;;;17.30;37.90;;;;;;4978977;28;20027;-92
2021/05/05 11:27:48;;;;;;;6.00;2.30;;;17.20;37.90;;;;;;4984199;28;20065;-91
2021/05/05 11:30:38;;;;;;;10.60;3.25;;;16.80;38.50;;;;;;4981774;28;20216;-91
2021/05/05 11:33:04;;;;;;;2.55;2.03;;;16.70;39.00;;;;;;4961784;28;20248;-90
2021/05/05 11:35:31;;;;;;;7.00;3.72;;;16.70;39.50;;;;;;4992967;28;20110;-93
2021/05/05 11:38:19;;;;;;;4.35;2.70;;;16.80;39.30;;;;;;4984214;28;20432;-92
2021/05/05 11:41:00;;;;;;;8.00;3.00;;;16.90;40.00;;;;;;4964157;28;20031;-88
2021/05/05 11:43:27;;;;;;;4.68;3.33;;;16.70;39.10;;;;;;4982367;28;20441;-88
2021/05/05 11:46:03;;;;;;;6.75;2.45;;;16.10;39.90;;;;;;4991149;28;20018;-90
2021/05/05 11:48:34;;;;;;;5.35;3.28;;;15.90;40.70;;;;;;4999111;28;20026;-89
2021/05/05 11:51:01;;;;;;;4.45;2.72;;;15.80;41.40;;;;;;5038770;28;20021;-90
2021/05/05 11:53:35;;;;;;;4.57;2.97;;;15.70;41.50;;;;;;5061207;28;20021;-87
2021/05/05 11:56:03;;;;;;;6.40;2.35;;;15.60;41.90;;;;;;5062197;28;20025;-91
2021/05/05 11:58:31;;;;;;;6.70;3.85;;;15.50;42.30;;;;;;5062157;28;20076;-90
2021/05/05 12:00:57;;;;;;;5.07;2.95;;;15.50;42.50;;;;;;5041871;28;20122;-89
2021/05/05 12:03:24;;;;;;;4.43;2.60;;;15.30;42.70;;;;;;5063645;28;20024;-90
2021/05/05 12:05:55;;;;;;;4.25;2.30;;;15.20;43.20;;;;;;5076186;28;20029;-89
2021/05/05 12:08:23;;;;;;;3.13;2.22;;;15.20;43.30;;;;;;5055780;28;20033;-87
2021/05/05 12:10:59;;;;;;;3.25;2.00;;;15.20;43.30;;;;;;5074252;28;20025;-90
2021/05/05 12:13:32;;;;;;;8.07;3.15;;;15.20;43.40;;;;;;5040382;28;20207;-90
2021/05/05 12:16:11;;;;;;;3.22;2.25;;;15.10;43.70;;;;;;5035314;28;20032;-90
2021/05/05 12:18:48;;;;;;;3.30;2.10;;;15.00;43.70;;;;;;5033513;28;20106;-89
2021/05/05 12:21:16;;;;;;;;;;;14.90;44.20;;;;;;5059905;28;20017;-92
2021/05/05 12:23:44;;;;;;;3.17;2.28;;;14.80;43.80;;;;;;5075571;28;19986;-90
2021/05/05 12:26:21;;;;;;;6.05;2.40;;;14.80;44.60;;;;;;5031892;28;20018;-91
2021/05/05 12:28:49;;;;;;;6.43;2.40;;;14.90;44.60;;;;;;5041981;28;20047;-92
2021/05/05 12:31:22;;;;;;;4.32;2.35;;;15.00;44.60;;;;;;5073187;28;20043;-88
2021/05/05 12:33:49;;;;;;;3.35;1.90;;;15.10;44.50;;;;;;5068829;28;20040;-91
2021/05/05 12:36:22;;;;;;;4.78;2.45;;;15.00;44.80;;;;;;5044144;28;20506;-90
2021/05/05 12:38:54;;;;;;;4.40;2.78;;;14.90;45.30;;;;;;5056013;28;20032;-91
2021/05/05 12:41:24;;;;;;;6.30;2.53;;;14.80;45.60;;;;;;5048041;28;20457;-93
2021/05/05 12:43:58;;;;;;;4.50;2.88;;;14.80;45.90;;;;;;5040700;28;20099;-89
2021/05/05 12:46:34;;;;;;;3.72;2.88;;;14.80;45.40;;;;;;5053086;28;20049;-87
2021/05/05 12:49:03;;;;;;;6.65;2.67;;;14.60;45.60;;;;;;5038647;28;20028;-90
2021/05/05 12:51:38;;;;;;;5.32;3.30;;;14.50;46.30;;;;;;5053965;28;20038;-85
2021/05/05 12:54:09;;;;;;;7.18;2.58;;;14.50;46.80;;;;;;5038477;28;20079;-93
2021/05/05 12:56:53;;;;;;;7.40;2.95;;;14.30;48.10;;;;;;5038270;28;20088;-91
2021/05/05 12:59:30;;;;;;;4.50;2.70;;;14.30;48.00;;;;;;5027273;28;20038;-92
2021/05/05 13:02:12;;;;;;;3.25;2.40;;;14.20;48.50;;;;;;5054725;28;20026;-92